createdAt,value
2023-04-16T00:01:46.681Z,11.00
2023-04-16T00:06:49.778Z,10.90
2023-04-16T00:11:52.899Z,10.90
2023-04-16T00:16:57.383Z,10.90
2023-04-16T00:22:00.628Z,10.80
2023-04-16T00:27:03.827Z,10.80
2023-04-16T00:32:08.828Z,10.70
2023-04-16T00:37:12.010Z,10.70
2023-04-16T00:42:15.290Z,10.60
2023-04-16T00:47:21.550Z,10.60
2023-04-16T00:52:24.945Z,10.60
2023-04-16T00:57:28.111Z,10.60
2023-04-16T01:02:32.808Z,10.50
2023-04-16T01:07:35.999Z,10.50
2023-04-16T01:12:39.241Z,10.50
2023-04-16T01:17:45.556Z,10.50
2023-04-16T01:22:50.454Z,10.50
2023-04-16T01:27:54.910Z,10.60
2023-04-16T01:32:58.026Z,10.60
2023-04-16T01:38:02.538Z,10.60
2023-04-16T01:43:06.124Z,10.60
2023-04-16T01:48:10.298Z,10.60
2023-04-16T01:53:14.770Z,10.50
2023-04-16T01:58:18.041Z,10.60
2023-04-16T02:03:21.724Z,10.60
2023-04-16T02:08:26.392Z,10.60
2023-04-16T02:13:29.478Z,10.50
2023-04-16T02:18:32.605Z,10.50
2023-04-16T02:23:37.496Z,10.50
2023-04-16T02:28:40.914Z,10.50
2023-04-16T02:33:44.123Z,10.50
2023-04-16T02:38:48.711Z,10.40
2023-04-16T02:43:51.797Z,10.50
2023-04-16T02:48:54.900Z,10.50
2023-04-16T02:53:59.359Z,10.40
2023-04-16T02:59:02.481Z,10.40
2023-04-16T03:04:05.891Z,10.50
2023-04-16T03:09:10.974Z,10.50
2023-04-16T03:14:14.294Z,10.50
2023-04-16T03:19:17.389Z,10.50
2023-04-16T03:24:21.851Z,10.50
2023-04-16T03:29:25.083Z,10.50
2023-04-16T03:34:28.155Z,10.50
2023-04-16T03:39:33.939Z,10.50
2023-04-16T03:44:37.136Z,10.50
2023-04-16T03:49:40.253Z,10.50
2023-04-16T03:54:44.722Z,10.40
2023-04-16T03:59:47.785Z,10.50
2023-04-16T04:04:50.916Z,10.40
2023-04-16T04:09:55.603Z,10.50
2023-04-16T04:14:58.868Z,10.50
2023-04-16T04:20:02.228Z,10.50
2023-04-16T04:25:08.597Z,10.50
2023-04-16T04:30:12.741Z,10.50
2023-04-16T04:35:15.837Z,10.50
2023-04-16T04:40:20.668Z,10.50
2023-04-16T04:45:25.549Z,10.50
2023-04-16T04:50:28.803Z,10.50
2023-04-16T04:55:33.300Z,10.40
2023-04-16T05:00:37.409Z,10.40
2023-04-16T05:05:40.756Z,10.40
2023-04-16T05:10:45.356Z,10.40
2023-04-16T05:15:48.474Z,10.40
2023-04-16T05:20:51.642Z,10.40
2023-04-16T05:25:56.086Z,10.50
2023-04-16T05:30:59.236Z,10.40
2023-04-16T05:36:02.382Z,10.50
2023-04-16T05:41:07.148Z,10.50
2023-04-16T05:46:10.295Z,10.50
2023-04-16T05:51:13.459Z,10.50
2023-04-16T05:56:20.935Z,10.50
2023-04-16T06:01:24.164Z,10.50
2023-04-16T06:06:30.790Z,10.50
2023-04-16T06:11:36.401Z,10.60
2023-04-16T06:16:39.759Z,10.60
2023-04-16T06:21:42.889Z,10.60
2023-04-16T06:26:47.372Z,10.60
2023-04-16T06:31:50.721Z,10.70
2023-04-16T06:36:53.912Z,10.80
2023-04-16T06:41:58.517Z,10.80
2023-04-16T06:47:01.623Z,10.80
2023-04-16T06:52:05.907Z,10.90
2023-04-16T06:57:11.273Z,11.00
2023-04-16T07:02:14.471Z,11.00
2023-04-16T07:07:17.671Z,11.10
2023-04-16T07:12:23.051Z,11.20
2023-04-16T07:17:26.502Z,11.30
2023-04-16T07:22:29.625Z,11.40
2023-04-16T07:27:34.191Z,11.50
2023-04-16T07:32:37.589Z,11.50
2023-04-16T07:37:41.435Z,11.60
2023-04-16T07:42:46.099Z,11.60
2023-04-16T07:47:51.609Z,11.70
2023-04-16T07:52:54.945Z,11.70
2023-04-16T07:57:59.444Z,11.80
2023-04-16T08:03:02.894Z,11.80
2023-04-16T08:08:06.465Z,11.80
2023-04-16T08:13:11.090Z,11.90
2023-04-16T08:18:15.710Z,12.00
2023-04-16T08:23:19.000Z,12.00
2023-04-16T08:28:23.459Z,12.10
2023-04-16T08:33:26.593Z,12.10
2023-04-16T08:38:30.410Z,12.20
2023-04-16T08:43:39.726Z,12.30
2023-04-16T08:48:44.118Z,12.40
2023-04-16T08:53:53.331Z,12.60
2023-04-16T08:58:58.535Z,12.70
2023-04-16T09:04:02.821Z,12.80
2023-04-16T09:09:07.060Z,12.90
2023-04-16T09:14:13.443Z,13.10
2023-04-16T09:19:16.862Z,13.20
2023-04-16T09:24:20.372Z,13.40
2023-04-16T09:29:37.502Z,13.50
2023-04-16T09:34:56.453Z,13.50
2023-04-16T09:40:00.980Z,13.60
2023-04-16T09:45:06.395Z,13.60
2023-04-16T09:50:12.694Z,13.60
2023-04-16T09:55:16.661Z,13.60
2023-04-16T10:00:21.202Z,13.70
2023-04-16T10:05:27.308Z,13.70
2023-04-16T10:10:30.681Z,13.60
2023-04-16T10:15:35.767Z,13.60
2023-04-16T10:20:39.168Z,13.50
2023-04-16T10:25:43.410Z,13.50
2023-04-16T10:30:53.695Z,13.60
2023-04-16T10:36:10.471Z,13.60
2023-04-16T10:41:13.955Z,13.60
2023-04-16T10:46:26.863Z,13.70
2023-04-16T10:51:32.668Z,13.70
2023-04-16T10:56:37.212Z,13.70
2023-04-16T11:01:44.399Z,13.80
2023-04-16T11:07:02.943Z,13.80
2023-04-16T11:12:13.056Z,13.90
2023-04-16T11:17:18.328Z,13.90
2023-04-16T11:22:21.618Z,13.90
2023-04-16T11:27:24.988Z,14.00
2023-04-16T11:32:32.029Z,14.00
2023-04-16T11:37:35.842Z,14.00
2023-04-16T11:42:40.771Z,14.10
2023-04-16T11:47:47.039Z,14.10
2023-04-16T11:52:50.574Z,14.20
2023-04-16T11:57:53.680Z,14.30
2023-04-16T12:02:58.973Z,14.40
2023-04-16T12:08:03.579Z,14.50
2023-04-16T12:13:17.819Z,14.60
2023-04-16T12:18:26.061Z,14.70
2023-04-16T12:23:31.455Z,14.80
2023-04-16T12:28:36.714Z,14.90
2023-04-16T12:33:42.733Z,14.90
2023-04-16T12:38:45.847Z,14.90
2023-04-16T12:43:48.954Z,15.00
2023-04-16T12:48:53.419Z,15.10
2023-04-16T12:53:56.731Z,15.10
2023-04-16T12:58:59.943Z,15.10
2023-04-16T13:04:04.739Z,15.10
2023-04-16T13:09:08.013Z,15.10
2023-04-16T13:14:11.318Z,15.20
2023-04-16T13:19:19.141Z,15.20
2023-04-16T13:24:23.227Z,15.20
2023-04-16T13:29:26.341Z,15.20
2023-04-16T13:34:31.791Z,15.30
2023-04-16T13:39:35.306Z,15.30
2023-04-16T13:44:38.418Z,15.30
2023-04-16T13:49:42.854Z,15.40
2023-04-16T13:54:45.986Z,15.40
2023-04-16T13:59:49.166Z,15.50
2023-04-16T14:04:53.966Z,15.50
2023-04-16T14:09:57.053Z,15.50
2023-04-16T14:15:00.179Z,15.60
2023-04-16T14:20:05.820Z,15.70
2023-04-16T14:25:09.374Z,15.60
2023-04-16T14:30:12.796Z,15.70
2023-04-16T14:35:17.335Z,15.70
2023-04-16T14:40:22.302Z,15.70
2023-04-16T14:45:29.060Z,15.70
2023-04-16T14:50:37.771Z,15.60
2023-04-16T14:55:41.108Z,15.70
2023-04-16T15:00:44.311Z,15.70
2023-04-16T15:05:55.967Z,15.70
2023-04-16T15:10:59.217Z,15.60
2023-04-16T15:16:02.859Z,15.60
2023-04-16T15:21:07.623Z,15.60
2023-04-16T15:26:10.732Z,15.50
2023-04-16T15:31:13.846Z,15.60
2023-04-16T15:36:18.393Z,15.50
2023-04-16T15:41:21.849Z,15.60
2023-04-16T15:46:25.209Z,15.60
2023-04-16T15:51:31.746Z,15.60
2023-04-16T15:56:34.923Z,15.60
2023-04-16T16:01:38.167Z,15.60
2023-04-16T16:06:42.690Z,15.60
2023-04-16T16:11:45.839Z,15.60
2023-04-16T16:16:49.213Z,15.70
2023-04-16T16:21:53.755Z,15.70
2023-04-16T16:26:57.054Z,15.70
2023-04-16T16:32:00.374Z,15.70
2023-04-16T16:37:05.153Z,15.60
2023-04-16T16:42:09.213Z,15.50
2023-04-16T16:47:12.335Z,15.50
2023-04-16T16:52:16.817Z,15.50
2023-04-16T16:57:20.456Z,15.50
2023-04-16T17:02:24.021Z,15.50
2023-04-16T17:07:28.774Z,15.50
2023-04-16T17:12:32.325Z,15.50
2023-04-16T17:17:35.977Z,15.40
2023-04-16T17:22:41.016Z,15.40
2023-04-16T17:27:44.136Z,15.40
2023-04-16T17:32:47.390Z,15.30
2023-04-16T17:37:52.290Z,15.20
2023-04-16T17:42:55.491Z,15.20
2023-04-16T17:47:58.608Z,15.10
2023-04-16T17:53:03.829Z,15.00
2023-04-16T17:58:07.016Z,14.90
2023-04-16T18:03:11.605Z,14.90
2023-04-16T18:08:16.287Z,14.90
2023-04-16T18:13:19.476Z,14.90
2023-04-16T18:18:22.534Z,14.90
2023-04-16T18:23:27.316Z,14.90
2023-04-16T18:28:30.401Z,14.90
2023-04-16T18:33:53.937Z,14.90
2023-04-16T18:39:15.682Z,14.90
2023-04-16T18:44:19.909Z,14.90
2023-04-16T18:49:26.419Z,14.90
2023-04-16T18:54:31.005Z,14.80
2023-04-16T18:59:34.632Z,14.70
2023-04-16T19:04:38.151Z,14.60
2023-04-16T19:09:42.875Z,14.50
2023-04-16T19:14:46.010Z,14.30
2023-04-16T19:19:49.351Z,14.20
2023-04-16T19:24:54.714Z,14.10
2023-04-16T19:29:57.967Z,14.10
2023-04-16T19:35:01.297Z,14.10
2023-04-16T19:40:06.967Z,14.10
2023-04-16T19:45:10.597Z,14.10
2023-04-16T19:50:13.976Z,14.10
2023-04-16T19:55:19.060Z,14.00
2023-04-16T20:00:22.757Z,14.00
2023-04-16T20:05:26.556Z,14.00
2023-04-16T20:10:34.865Z,14.00
2023-04-16T20:15:38.694Z,13.90
2023-04-16T20:20:42.110Z,13.80
2023-04-16T20:25:47.768Z,13.60
2023-04-16T20:30:51.209Z,13.50
2023-04-16T20:35:57.307Z,13.40
2023-04-16T20:41:10.008Z,13.20
2023-04-16T20:46:13.827Z,13.00
2023-04-16T20:51:17.410Z,12.90
2023-04-16T20:56:22.128Z,12.70
2023-04-16T21:01:25.356Z,12.50
2023-04-16T21:06:32.846Z,12.40
2023-04-16T21:11:37.805Z,12.40
2023-04-16T21:16:41.411Z,12.30
2023-04-16T21:21:44.844Z,12.30
2023-04-16T21:26:49.569Z,12.30
2023-04-16T21:31:52.967Z,12.30
2023-04-16T21:36:57.050Z,12.30
2023-04-16T21:42:02.584Z,12.30
2023-04-16T21:47:06.105Z,12.20
2023-04-16T21:52:14.167Z,12.10
2023-04-16T21:57:18.841Z,12.00
2023-04-16T22:02:22.998Z,12.00
2023-04-16T22:07:27.197Z,11.90
2023-04-16T22:12:32.417Z,11.90
2023-04-16T22:17:35.936Z,11.90
2023-04-16T22:22:39.424Z,11.80
2023-04-16T22:27:44.106Z,11.80
2023-04-16T22:32:47.402Z,11.70
2023-04-16T22:37:50.942Z,11.70
2023-04-16T22:42:55.555Z,11.70
2023-04-16T22:47:59.005Z,11.70
2023-04-16T22:53:02.289Z,11.70
2023-04-16T22:58:06.954Z,11.60
2023-04-16T23:03:10.332Z,11.60
2023-04-16T23:08:13.767Z,11.60
2023-04-16T23:13:18.478Z,11.60
2023-04-16T23:18:21.936Z,11.50
2023-04-16T23:23:25.323Z,11.40
2023-04-16T23:28:30.322Z,11.50
2023-04-16T23:33:33.735Z,11.40
2023-04-16T23:38:37.241Z,11.50
2023-04-16T23:43:44.027Z,11.50
2023-04-16T23:48:47.237Z,11.60
2023-04-16T23:53:50.634Z,11.60
2023-04-16T23:58:55.572Z,11.50
